Time;durP1;ratioP1;P1;durP2;ratioP2;P2;SDS_P1;SDS_P2;PMS_P1;PMS_P2;Temp;Humidity;BMP_temperature;BMP_pressure;BME280_temperature;BME280_humidity;BME280_pressure;Samples;Min_cycle;Max_cycle;Signal;HPM_P1;HPM_P2
2022/05/11 00:01:10;;;;;;;6.90;4.30;;;;;;;9.65;51.56;100240.00;131452;1266;108615;-83
2022/05/11 00:04:16;;;;;;;7.60;4.00;;;;;;;9.69;51.63;100241.08;130573;1266;108852;-83
2022/05/11 00:07:22;;;;;;;6.20;3.70;;;;;;;9.75;51.81;100235.88;130542;1267;108956;-81
2022/05/11 00:10:27;;;;;;;7.90;4.20;;;;;;;9.76;51.79;100231.45;130450;1267;108797;-81
2022/05/11 00:13:34;;;;;;;6.60;4.10;;;;;;;9.79;52.11;100225.17;130479;1267;108606;-78
2022/05/11 00:16:40;;;;;;;6.60;4.30;;;;;;;9.79;52.22;100216.75;130417;1267;108996;-78
2022/05/11 00:19:45;;;;;;;6.60;4.40;;;;;;;9.79;52.04;100210.72;130390;1267;108798;-82
2022/05/11 00:22:55;;;;;;;8.40;3.80;;;;;;;9.79;52.28;100209.35;130496;1267;107489;-82
2022/05/11 00:26:01;;;;;;;7.80;4.20;;;;;;;9.79;52.41;100201.92;130499;1267;108666;-80
2022/05/11 00:29:06;;;;;;;9.50;4.30;;;;;;;9.78;52.58;100199.88;130519;1267;108938;-78
2022/05/11 00:32:12;;;;;;;6.80;4.00;;;;;;;9.77;52.51;100197.63;130458;1266;107681;-80
2022/05/11 00:35:17;;;;;;;6.50;4.20;;;;;;;9.76;52.67;100193.80;130428;1267;108745;-79
2022/05/11 00:38:26;;;;;;;8.10;4.30;;;;;;;9.77;52.72;100188.75;130303;1267;109040;-80
2022/05/11 00:41:31;;;;;;;8.40;4.20;;;;;;;9.78;52.91;100187.55;130389;1267;108545;-81
2022/05/11 00:44:37;;;;;;;7.20;3.90;;;;;;;9.80;52.91;100187.23;130464;1267;108736;-80
2022/05/11 00:47:47;;;;;;;7.60;4.20;;;;;;;9.81;53.11;100190.83;130515;1267;109104;-80
2022/05/11 00:50:54;;;;;;;8.40;4.40;;;;;;;9.85;53.07;100189.60;130519;1267;108633;-81
2022/05/11 00:54:01;;;;;;;6.30;4.00;;;;;;;9.88;52.91;100182.90;130471;1267;108739;-81
2022/05/11 00:57:15;;;;;;;5.90;4.00;;;;;;;9.94;52.96;100182.33;131016;1267;108581;-81
2022/05/11 01:00:23;;;;;;;7.00;3.80;;;;;;;9.98;52.89;100184.61;131001;1267;108860;-79
2022/05/11 01:03:35;;;;;;;5.60;4.00;;;;;;;10.02;53.05;100185.22;131212;1267;108698;-79
2022/05/11 01:06:42;;;;;;;5.90;4.30;;;;;;;10.07;53.01;100183.50;131554;1267;107665;-79
2022/05/11 01:09:48;;;;;;;7.30;4.10;;;;;;;10.11;53.35;100183.30;131563;1267;108804;-80
2022/05/11 01:12:58;;;;;;;6.50;4.10;;;;;;;10.14;53.26;100177.14;131685;1267;109292;-80
2022/05/11 01:16:04;;;;;;;7.00;4.00;;;;;;;10.18;53.28;100177.73;130474;1266;108820;-81
2022/05/11 01:19:14;;;;;;;5.50;4.00;;;;;;;10.21;53.35;100177.80;130488;1267;109068;-81
2022/05/11 01:22:26;;;;;;;7.60;4.20;;;;;;;10.23;53.11;100174.65;130416;1267;108878;-82
2022/05/11 01:25:32;;;;;;;6.60;4.30;;;;;;;10.24;53.37;100175.98;130541;1266;108984;-83
2022/05/11 01:28:43;;;;;;;7.00;4.30;;;;;;;10.27;53.38;100167.55;131566;1267;108871;-83
2022/05/11 01:31:49;;;;;;;5.90;4.00;;;;;;;10.28;53.46;100168.60;130838;1266;107788;-83
2022/05/11 01:34:59;;;;;;;8.40;4.60;;;;;;;10.31;53.27;100164.65;130473;1267;108769;-83
2022/05/11 01:38:18;;;;;;;6.00;4.30;;;;;;;10.32;53.21;100165.56;130486;1267;108750;-83
2022/05/11 01:41:27;;;;;;;8.10;4.90;;;;;;;10.35;53.45;100158.41;130481;1267;108677;-81
2022/05/11 01:44:33;;;;;;;7.40;4.30;;;;;;;10.38;53.25;100152.87;130477;1267;108640;-81
2022/05/11 01:47:39;;;;;;;7.00;4.30;;;;;;;10.41;53.10;100150.64;130435;1267;107712;-81
2022/05/11 01:50:45;;;;;;;8.90;4.50;;;;;;;10.42;53.29;100142.74;130477;1267;108186;-81
2022/05/11 01:53:51;;;;;;;7.90;4.40;;;;;;;10.42;53.43;100137.91;130516;1267;108645;-80
2022/05/11 01:56:57;;;;;;;8.10;4.60;;;;;;;10.45;53.39;100134.65;130400;1267;108861;-80
2022/05/11 02:00:04;;;;;;;8.00;4.50;;;;;;;10.45;53.23;100126.23;130506;1267;108809;-80
2022/05/11 02:03:18;;;;;;;8.60;4.40;;;;;;;10.46;52.96;100126.36;130421;1268;108875;-78
2022/05/11 02:09:47;;;;;;;6.20;4.00;;;;;;;10.49;53.21;100119.08;130540;1267;108805;-79
2022/05/11 02:12:54;;;;;;;6.60;4.10;;;;;;;10.49;53.32;100110.19;131928;1267;108776;-81
2022/05/11 02:16:00;;;;;;;5.40;3.80;;;;;;;10.48;53.24;100107.69;131288;1267;108632;-80
2022/05/11 02:19:06;;;;;;;8.60;4.40;;;;;;;10.46;53.43;100106.45;131187;1267;108666;-81
2022/05/11 02:22:11;;;;;;;8.60;4.40;;;;;;;10.44;53.32;100102.54;131437;1267;108711;-82
2022/05/11 02:25:18;;;;;;;6.80;4.40;;;;;;;10.41;53.51;100099.92;130563;1269;108031;-81
2022/05/11 02:28:24;;;;;;;6.20;3.80;;;;;;;10.40;53.57;100098.34;130369;1266;108815;-80
2022/05/11 02:31:30;;;;;;;7.10;4.10;;;;;;;10.39;53.59;100097.87;130985;1267;108640;-81
2022/05/11 02:38:01;;;;;;;7.40;4.50;;;;;;;10.38;53.86;100086.79;130471;1267;107283;-80
2022/05/11 02:41:06;;;;;;;9.90;4.60;;;;;;;10.36;53.87;100082.58;130562;1267;108733;-79
2022/05/11 02:44:12;;;;;;;8.60;4.50;;;;;;;10.33;54.06;100081.42;130442;1267;108676;-82
2022/05/11 02:47:17;;;;;;;7.90;4.70;;;;;;;10.32;53.97;100085.62;130471;1268;109825;-82
2022/05/11 02:50:26;;;;;;;6.60;4.40;;;;;;;10.30;54.01;100086.30;130461;1267;108814;-83
2022/05/11 02:53:33;;;;;;;7.50;4.50;;;;;;;10.30;53.88;100088.85;130805;1266;108983;-81
2022/05/11 02:56:38;;;;;;;8.10;4.50;;;;;;;10.30;54.16;100084.05;130866;1267;108844;-82
2022/05/11 02:59:44;;;;;;;8.30;5.10;;;;;;;10.31;54.12;100081.94;130621;1267;108881;-82
2022/05/11 03:02:49;;;;;;;8.60;4.40;;;;;;;10.35;54.20;100078.54;130512;1268;108697;-84
2022/05/11 03:05:55;;;;;;;8.70;4.90;;;;;;;10.39;54.16;100073.56;130746;1267;108933;-83
2022/05/11 03:09:00;;;;;;;8.00;4.80;;;;;;;10.42;54.21;100072.45;130629;1267;108565;-83
2022/05/11 03:12:07;;;;;;;7.40;4.90;;;;;;;10.46;54.19;100074.81;130474;1267;106891;-83
2022/05/11 03:15:14;;;;;;;7.80;4.80;;;;;;;10.48;53.93;100068.88;130517;1266;108845;-83
2022/05/11 03:18:19;;;;;;;7.30;4.60;;;;;;;10.50;54.36;100064.94;130548;1268;108926;-83
2022/05/11 03:21:26;;;;;;;9.00;4.90;;;;;;;10.53;54.44;100061.41;130458;1266;108879;-84
2022/05/11 03:24:31;;;;;;;7.10;4.50;;;;;;;10.57;54.32;100053.52;130472;1268;108955;-82
2022/05/11 03:27:37;;;;;;;7.10;4.90;;;;;;;10.61;54.33;100049.89;130431;1268;108854;-83
2022/05/11 03:30:42;;;;;;;7.60;4.90;;;;;;;10.68;54.61;100049.73;130494;1267;108770;-84
2022/05/11 03:37:14;;;;;;;9.50;5.50;;;;;;;10.84;54.48;100042.36;130492;1267;108756;-82
2022/05/11 03:40:20;;;;;;;7.90;5.20;;;;;;;10.92;54.43;100038.48;130540;1267;108691;-83
2022/05/11 03:43:25;;;;;;;11.90;5.30;;;;;;;11.01;54.43;100039.19;130540;1268;109005;-83
2022/05/11 03:46:31;;;;;;;9.00;5.00;;;;;;;11.09;54.51;100039.63;130323;1266;364645;-83
2022/05/11 03:49:36;;;;;;;7.40;4.60;;;;;;;11.17;54.48;100033.05;130514;1267;108720;-83
2022/05/11 03:52:42;;;;;;;8.20;5.00;;;;;;;11.24;54.55;100029.96;130571;1268;108754;-83
2022/05/11 03:55:47;;;;;;;8.30;5.10;;;;;;;11.32;54.47;100036.13;130518;1268;108495;-83
2022/05/11 03:58:55;;;;;;;10.90;5.40;;;;;;;11.39;54.61;100035.91;130548;1267;107559;-83
2022/05/11 04:02:00;;;;;;;8.50;5.30;;;;;;;11.46;54.56;100033.95;130576;1268;108663;-81
2022/05/11 04:05:07;;;;;;;7.30;4.60;;;;;;;11.51;54.73;100031.61;130604;1268;108670;-82
2022/05/11 04:08:13;;;;;;;8.60;4.90;;;;;;;11.57;54.25;100030.39;130566;1268;108805;-83
2022/05/11 04:11:19;;;;;;;7.70;4.80;;;;;;;11.63;54.35;100027.38;130584;1267;108009;-83
2022/05/11 04:14:25;;;;;;;8.20;4.90;;;;;;;11.71;54.28;100023.84;130597;1268;107952;-83
2022/05/11 04:17:30;;;;;;;8.60;5.20;;;;;;;11.82;54.45;100024.73;130594;1266;108710;-82
2022/05/11 04:20:36;;;;;;;7.20;5.10;;;;;;;11.93;54.22;100031.11;130637;1267;108321;-83
2022/05/11 04:23:42;;;;;;;9.00;5.40;;;;;;;12.07;54.50;100029.33;130551;1268;108665;-83
2022/05/11 04:26:48;;;;;;;6.60;4.70;;;;;;;12.21;54.28;100025.60;130574;1267;108785;-85
2022/05/11 04:29:54;;;;;;;9.30;5.10;;;;;;;12.38;54.14;100022.14;130573;1268;108671;-84
2022/05/11 04:33:00;;;;;;;6.70;4.70;;;;;;;12.53;54.10;100021.49;130564;1266;108724;-84
2022/05/11 04:36:06;;;;;;;6.90;4.70;;;;;;;12.69;54.07;100023.89;130628;1268;108954;-84
2022/05/11 04:39:11;;;;;;;6.70;4.60;;;;;;;12.89;54.04;100024.48;130571;1268;108439;-83
2022/05/11 04:42:17;;;;;;;7.30;5.20;;;;;;;13.07;53.94;100023.58;130622;1268;108866;-84
2022/05/11 04:45:23;;;;;;;9.10;5.50;;;;;;;13.15;53.93;100021.14;130599;1267;108755;-83
2022/05/11 04:48:28;;;;;;;7.50;5.30;;;;;;;13.26;53.94;100022.58;130588;1267;108658;-85
2022/05/11 04:51:34;;;;;;;7.00;4.40;;;;;;;13.40;53.91;100020.47;130621;1268;108994;-84
2022/05/11 04:54:41;;;;;;;8.60;5.10;;;;;;;13.46;53.88;100017.67;130604;1268;107107;-82
2022/05/11 04:57:48;;;;;;;7.90;4.80;;;;;;;13.56;53.92;100022.41;130488;1268;108816;-84
2022/05/11 05:00:54;;;;;;;7.60;5.40;;;;;;;13.75;53.92;100022.16;130517;1268;107840;-83
2022/05/11 05:04:00;;;;;;;8.80;5.50;;;;;;;13.96;53.91;100019.14;130573;1268;108695;-83
2022/05/11 05:07:05;;;;;;;8.10;5.30;;;;;;;14.14;53.87;100019.16;130449;1267;108839;-84
2022/05/11 05:10:14;;;;;;;9.00;5.20;;;;;;;14.36;53.78;100014.45;130386;1268;108894;-83
2022/05/11 05:13:20;;;;;;;8.30;5.50;;;;;;;14.61;53.53;100014.46;130444;1267;108708;-80
2022/05/11 05:16:25;;;;;;;7.80;5.20;;;;;;;14.84;53.53;100009.37;130571;1268;108687;-79
2022/05/11 05:19:32;;;;;;;7.90;5.40;;;;;;;15.06;53.33;100001.31;130476;1268;108843;-80
2022/05/11 05:22:37;;;;;;;9.30;5.00;;;;;;;15.26;53.50;99997.49;130359;1268;107655;-77
2022/05/11 05:25:42;;;;;;;8.30;5.30;;;;;;;15.46;53.24;100000.39;130365;1268;106733;-77
2022/05/11 05:32:11;;;;;;;10.10;5.60;;;;;;;15.78;53.26;100006.14;130366;1267;108760;-78
2022/05/11 05:35:20;;;;;;;8.30;5.40;;;;;;;15.88;53.15;100011.92;130334;1267;109040;-78
2022/05/11 05:38:26;;;;;;;9.10;5.40;;;;;;;16.00;53.33;100011.44;130367;1268;108891;-78
2022/05/11 05:41:32;;;;;;;11.90;5.50;;;;;;;16.08;52.94;100010.02;130339;1266;108828;-78
2022/05/11 05:44:39;;;;;;;9.50;6.00;;;;;;;16.18;53.08;100010.73;130316;1267;108665;-78
2022/05/11 05:47:45;;;;;;;8.00;5.20;;;;;;;16.31;52.81;100007.82;130342;1267;108688;-78
2022/05/11 05:50:51;;;;;;;8.00;5.50;;;;;;;16.44;52.86;100010.02;130319;1267;108820;-78
2022/05/11 05:53:57;;;;;;;9.00;5.40;;;;;;;16.55;52.93;100011.36;130348;1267;107678;-78
2022/05/11 05:57:02;;;;;;;10.40;5.90;;;;;;;16.67;53.09;100008.04;130380;1267;108939;-78
2022/05/11 06:00:10;;;;;;;10.00;6.10;;;;;;;16.79;52.77;100012.17;130323;1267;108783;-78
2022/05/11 06:03:21;;;;;;;8.00;5.70;;;;;;;16.90;52.82;100005.56;130343;1267;108778;-78
2022/05/11 06:06:26;;;;;;;7.80;5.90;;;;;;;17.06;52.92;100010.50;130351;1267;108782;-78
2022/05/11 06:09:32;;;;;;;10.10;5.90;;;;;;;17.23;52.76;100007.77;130317;1267;108769;-79
2022/05/11 06:12:37;;;;;;;10.00;6.40;;;;;;;17.37;52.77;100012.91;130361;1267;109087;-79
2022/05/11 06:15:44;;;;;;;10.60;7.20;;;;;;;17.47;52.77;100006.83;130348;1267;109067;-79
2022/05/11 06:18:49;;;;;;;8.60;6.40;;;;;;;17.56;52.64;100009.80;130407;1266;108884;-78
2022/05/11 06:21:56;;;;;;;8.30;6.10;;;;;;;17.64;52.65;100004.95;130378;1267;108142;-79
2022/05/11 06:25:01;;;;;;;7.40;6.20;;;;;;;17.75;52.65;100007.17;130341;1267;108696;-79
2022/05/11 06:28:08;;;;;;;10.60;6.50;;;;;;;17.88;52.48;100008.20;130322;1267;108683;-79
2022/05/11 06:31:14;;;;;;;9.80;6.00;;;;;;;18.05;52.67;100009.29;130333;1267;108664;-79
2022/05/11 06:34:20;;;;;;;10.30;5.70;;;;;;;18.29;52.53;100007.81;130331;1267;108112;-78
2022/05/11 06:37:26;;;;;;;8.80;5.70;;;;;;;18.58;52.47;100002.36;130317;1267;108752;-78
2022/05/11 06:40:31;;;;;;;10.90;5.80;;;;;;;18.88;52.60;100001.09;130303;1267;108870;-78
2022/05/11 06:43:38;;;;;;;8.20;5.40;;;;;;;19.13;52.20;99998.53;130328;1267;108952;-78
2022/05/11 06:46:44;;;;;;;8.20;5.70;;;;;;;19.32;52.13;100001.39;130310;1267;108673;-78
2022/05/11 06:49:49;;;;;;;6.90;5.30;;;;;;;19.45;51.71;99997.90;130294;1267;108896;-78
2022/05/11 06:52:56;;;;;;;6.90;5.10;;;;;;;19.60;51.88;100000.38;130326;1267;108827;-79
2022/05/11 06:59:26;;;;;;;7.60;5.40;;;;;;;20.00;51.63;99994.95;130296;1267;108759;-78
2022/05/11 07:02:33;;;;;;;11.40;5.40;;;;;;;20.14;51.40;99989.99;130357;1267;108683;-78
2022/05/11 07:05:39;;;;;;;9.80;5.60;;;;;;;20.31;51.30;99991.50;130349;1267;108771;-79
2022/05/11 07:08:46;;;;;;;8.90;5.60;;;;;;;20.46;51.05;99984.88;130356;1267;108704;-79
2022/05/11 07:15:18;;;;;;;11.40;6.00;;;;;;;20.63;50.85;99982.69;130291;1266;108969;-79
2022/05/11 07:18:23;;;;;;;7.00;5.60;;;;;;;20.74;50.91;99984.73;130378;1267;108868;-78
2022/05/11 07:21:28;;;;;;;9.00;5.80;;;;;;;20.93;50.84;99984.79;130307;1267;108693;-78
2022/05/11 07:24:34;;;;;;;7.80;5.60;;;;;;;21.18;50.57;99977.49;130288;1267;108758;-78
2022/05/11 07:27:42;;;;;;;7.30;5.40;;;;;;;21.39;50.30;99973.98;130384;1267;108739;-78
2022/05/11 07:30:48;;;;;;;9.00;5.30;;;;;;;21.64;50.30;99964.83;130386;1267;108833;-78
2022/05/11 07:33:54;;;;;;;8.40;5.50;;;;;;;21.88;50.21;99958.08;130282;1267;108850;-80
2022/05/11 07:36:59;;;;;;;7.30;5.30;;;;;;;22.04;50.03;99956.17;130324;1267;108837;-79
2022/05/11 07:40:07;;;;;;;10.30;5.20;;;;;;;22.16;49.94;99953.84;130280;1267;108917;-79
2022/05/11 07:43:13;;;;;;;9.40;5.50;;;;;;;22.23;49.83;99951.41;130380;1267;108879;-78
2022/05/11 07:46:19;;;;;;;7.40;5.10;;;;;;;22.31;49.78;99949.65;130298;1267;107802;-78
2022/05/11 07:49:24;;;;;;;8.30;5.60;;;;;;;22.46;49.86;99947.96;130311;1267;108673;-78
2022/05/11 07:52:30;;;;;;;6.60;5.40;;;;;;;22.64;49.63;99946.98;130262;1267;108803;-79
2022/05/11 07:55:36;;;;;;;9.10;5.30;;;;;;;22.88;49.39;99946.00;130296;1267;108870;-79
2022/05/11 08:02:06;;;;;;;6.30;4.80;;;;;;;23.34;48.79;99936.54;130262;1266;108799;-78
2022/05/11 08:05:14;;;;;;;8.40;4.50;;;;;;;23.38;48.59;99931.92;130266;1267;109560;-79
2022/05/11 08:08:20;;;;;;;6.10;4.70;;;;;;;23.45;48.68;99930.48;130324;1267;108834;-78
2022/05/11 08:11:25;;;;;;;7.90;4.80;;;;;;;23.59;48.48;99930.05;130257;1267;108796;-78
2022/05/11 08:14:31;;;;;;;8.00;5.20;;;;;;;23.72;48.47;99927.98;130305;1267;108663;-78
2022/05/11 08:17:37;;;;;;;11.70;5.40;;;;;;;23.82;48.59;99939.21;130299;1267;108779;-79
2022/05/11 08:20:46;;;;;;;6.10;4.80;;;;;;;23.94;48.49;99940.27;130314;1267;107413;-79
2022/05/11 08:23:52;;;;;;;8.90;5.20;;;;;;;24.04;48.00;99934.05;130292;1267;108632;-79
2022/05/11 08:26:57;;;;;;;6.10;4.80;;;;;;;24.10;47.89;99937.52;130261;1267;108684;-79
2022/05/11 08:33:35;;;;;;;8.00;4.70;;;;;;;24.08;47.75;99948.55;129980;1267;108878;-79
2022/05/11 08:36:41;;;;;;;6.80;4.50;;;;;;;24.08;47.40;99950.30;130315;1267;108665;-79
2022/05/11 08:39:48;;;;;;;6.40;4.60;;;;;;;24.13;47.37;99950.75;130238;1267;108797;-79
2022/05/11 08:42:55;;;;;;;7.30;4.60;;;;;;;24.17;46.42;99951.42;130264;1267;108848;-79
2022/05/11 08:46:09;;;;;;;5.80;4.40;;;;;;;24.27;46.65;99949.32;130313;1267;108814;-79
2022/05/11 08:49:23;;;;;;;7.60;4.60;;;;;;;24.41;46.81;99947.23;130278;1267;108775;-80
2022/05/11 08:52:36;;;;;;;6.90;4.40;;;;;;;24.58;46.51;99943.71;130269;1267;108703;-80
2022/05/11 08:55:46;;;;;;;5.50;4.70;;;;;;;24.76;46.20;99942.02;130297;1267;108761;-78
2022/05/11 08:58:54;;;;;;;6.50;4.60;;;;;;;24.84;46.22;99944.02;130327;1267;109123;-79
2022/05/11 09:02:05;;;;;;;5.50;4.60;;;;;;;24.90;46.33;99946.45;130301;1267;109007;-79
2022/05/11 09:05:12;;;;;;;6.50;4.70;;;;;;;24.92;45.98;99940.52;130295;1267;108946;-79
2022/05/11 09:08:17;;;;;;;8.50;4.60;;;;;;;24.85;45.30;99936.17;130284;1267;108693;-79
2022/05/11 09:11:29;;;;;;;7.40;4.90;;;;;;;24.76;45.50;99931.27;130251;1267;108764;-78
2022/05/11 09:14:37;;;;;;;7.90;4.70;;;;;;;24.61;44.78;99929.52;130336;1267;108681;-79
2022/05/11 09:17:44;;;;;;;8.70;4.50;;;;;;;24.45;45.46;99932.33;130366;1267;108732;-79
2022/05/11 09:20:53;;;;;;;6.50;4.30;;;;;;;24.37;45.27;99934.61;130308;1267;108833;-79
2022/05/11 09:24:29;;;;;;;6.70;5.00;;;;;;;24.34;45.27;99931.90;130391;1267;108844;-79
2022/05/11 09:27:37;;;;;;;6.60;4.50;;;;;;;24.36;45.16;99934.55;130225;1267;108939;-79
2022/05/11 09:30:58;;;;;;;6.60;5.10;;;;;;;24.40;45.34;99934.49;130283;1267;108737;-78
2022/05/11 09:34:07;;;;;;;6.90;5.00;;;;;;;24.48;45.15;99929.98;130240;1267;108734;-80
2022/05/11 09:37:27;;;;;;;8.50;5.10;;;;;;;24.52;44.64;99925.21;130377;1267;108840;-81
2022/05/11 09:40:48;;;;;;;7.90;4.70;;;;;;;24.55;44.90;99929.44;130333;1267;108722;-81
2022/05/11 09:43:58;;;;;;;7.40;4.60;;;;;;;24.64;44.89;99925.29;130326;1267;108794;-81
2022/05/11 09:47:22;;;;;;;9.40;5.00;;;;;;;24.70;44.84;99923.52;130313;1267;108685;-80
2022/05/11 09:50:28;;;;;;;7.80;5.10;;;;;;;24.75;44.73;99916.09;130409;1267;108628;-80
2022/05/11 09:53:36;;;;;;;9.10;4.60;;;;;;;24.74;44.71;99917.16;130287;1267;108748;-81
2022/05/11 09:56:46;;;;;;;5.60;4.80;;;;;;;24.70;44.31;99915.92;130382;1267;108879;-81
2022/05/11 09:59:56;;;;;;;7.60;4.80;;;;;;;24.61;44.17;99911.67;130390;1267;108543;-80
2022/05/11 10:03:06;;;;;;;5.80;4.50;;;;;;;24.51;43.78;99916.20;130286;1267;108788;-80
2022/05/11 10:06:13;;;;;;;6.30;4.40;;;;;;;24.39;44.19;99912.23;130300;1267;108662;-81
2022/05/11 10:09:26;;;;;;;5.80;4.50;;;;;;;24.35;43.71;99911.02;130411;1267;109054;-79
2022/05/11 10:12:38;;;;;;;8.10;4.50;;;;;;;24.32;43.93;99907.83;130395;1267;108721;-79
2022/05/11 10:22:41;;;;;;;5.60;4.80;;;;;;;24.34;43.72;99899.25;130295;1267;108754;-79
2022/05/11 10:25:53;;;;;;;6.80;4.70;;;;;;;24.42;43.67;99896.17;130355;1267;107718;-79
2022/05/11 10:29:07;;;;;;;6.60;5.20;;;;;;;24.48;43.53;99889.83;130300;1267;108910;-80
2022/05/11 10:32:20;;;;;;;6.50;4.80;;;;;;;24.56;43.55;99884.82;130380;1267;108769;-80
2022/05/11 10:35:32;;;;;;;7.00;4.80;;;;;;;24.65;43.52;99885.75;130305;1267;108696;-80
2022/05/11 10:38:49;;;;;;;10.10;5.30;;;;;;;24.72;43.10;99884.69;130319;1266;108650;-80
2022/05/11 10:42:03;;;;;;;5.40;4.70;;;;;;;24.82;42.96;99881.23;130283;1267;108723;-80
2022/05/11 10:45:19;;;;;;;6.30;4.90;;;;;;;24.95;42.43;99879.96;130382;1267;108913;-80
2022/05/11 10:48:43;;;;;;;7.40;5.10;;;;;;;25.05;42.30;99874.83;130297;1267;108836;-80
2022/05/11 10:52:01;;;;;;;6.00;4.80;;;;;;;25.12;42.06;99874.77;130344;1266;108845;-80
2022/05/11 10:55:23;;;;;;;7.10;4.90;;;;;;;25.15;42.24;99872.83;130343;1267;108829;-79
2022/05/11 10:59:01;;;;;;;6.70;4.90;;;;;;;25.20;42.02;99872.21;130372;1267;108626;-79
2022/05/11 11:02:39;;;;;;;6.70;5.10;;;;;;;25.30;42.04;99867.70;130322;1267;108850;-79
2022/05/11 11:09:32;;;;;;;6.40;5.20;;;;;;;25.54;41.28;99862.25;130296;1267;108869;-81
2022/05/11 11:12:54;;;;;;;8.60;5.30;;;;;;;25.62;41.09;99860.36;130371;1267;107073;-79
2022/05/11 11:16:02;;;;;;;6.10;5.30;;;;;;;25.74;40.31;99853.33;130394;1267;108820;-80
2022/05/11 11:19:10;;;;;;;6.70;5.20;;;;;;;25.93;40.86;99859.52;130373;1266;108657;-80
2022/05/11 11:22:16;;;;;;;5.50;4.90;;;;;;;26.09;40.92;99852.15;130405;1266;108694;-81
2022/05/11 11:25:25;;;;;;;6.20;4.90;;;;;;;26.28;40.50;99846.80;130397;1267;108932;-80
2022/05/11 11:28:34;;;;;;;5.80;5.20;;;;;;;26.41;40.26;99847.41;130367;1267;108878;-81
2022/05/11 11:32:06;;;;;;;5.90;4.70;;;;;;;26.49;39.81;99849.47;130339;1267;108722;-81
2022/05/11 11:35:35;;;;;;;6.00;4.80;;;;;;;26.56;39.86;99852.82;130343;1267;108685;-79
2022/05/11 11:38:49;;;;;;;7.90;5.20;;;;;;;26.60;39.38;99850.73;130326;1267;109054;-80
2022/05/11 11:42:07;;;;;;;6.40;4.80;;;;;;;26.61;39.58;99848.38;130327;1267;108617;-80
2022/05/11 11:45:34;;;;;;;6.00;5.10;;;;;;;26.69;39.92;99845.88;130338;1266;108861;-80
2022/05/11 11:48:42;;;;;;;7.20;5.10;;;;;;;26.75;39.67;99845.63;130275;1267;108726;-81
2022/05/11 11:51:58;;;;;;;5.90;4.80;;;;;;;26.82;39.33;99840.32;130398;1267;108640;-81
2022/05/11 11:55:08;;;;;;;5.20;4.70;;;;;;;26.92;38.91;99843.40;130441;1267;108808;-81
2022/05/11 11:58:27;;;;;;;5.20;4.70;;;;;;;27.09;38.88;99835.86;130418;1267;108861;-80
2022/05/11 12:01:36;;;;;;;5.20;4.70;;;;;;;27.25;38.38;99825.98;130394;1267;108750;-81
2022/05/11 12:04:45;;;;;;;6.30;4.80;;;;;;;27.26;37.95;99830.09;130361;1266;108685;-80
2022/05/11 12:15:02;;;;;;;5.20;4.70;;;;;;;27.37;37.81;99818.96;130434;1267;108861;-80
2022/05/11 12:18:24;;;;;;;5.20;4.70;;;;;;;27.37;37.75;99811.69;130414;1267;109667;-80
2022/05/11 12:21:33;;;;;;;5.40;4.30;;;;;;;27.50;37.91;99815.34;130401;1267;107688;-80
2022/05/11 12:24:40;;;;;;;6.50;5.10;;;;;;;27.54;37.79;99803.87;130418;1267;108787;-80
2022/05/11 12:27:47;;;;;;;5.20;4.70;;;;;;;27.64;38.09;99804.52;130299;1267;108825;-80
2022/05/11 12:30:52;;;;;;;5.10;4.60;;;;;;;27.71;37.60;99806.52;130386;1266;108736;-80
2022/05/11 12:33:58;;;;;;;5.20;4.60;;;;;;;27.67;37.63;99801.44;130360;1266;108898;-80
2022/05/11 12:37:04;;;;;;;4.70;4.30;;;;;;;27.65;36.51;99793.93;130388;1267;108872;-80
2022/05/11 12:40:13;;;;;;;5.40;4.90;;;;;;;27.62;37.17;99795.64;130319;1267;108670;-80
2022/05/11 12:43:30;;;;;;;5.30;4.30;;;;;;;27.69;37.47;99793.70;130391;1267;108771;-80
2022/05/11 12:46:41;;;;;;;5.90;5.00;;;;;;;27.70;37.35;99793.58;130479;1267;108666;-80
2022/05/11 12:49:49;;;;;;;8.10;4.70;;;;;;;27.61;37.03;99795.36;130464;1267;108863;-80
2022/05/11 12:53:24;;;;;;;5.90;4.80;;;;;;;27.53;36.88;99794.51;130508;1267;108854;-79
2022/05/11 12:56:32;;;;;;;5.50;4.60;;;;;;;27.46;36.61;99789.75;130369;1267;107765;-79
2022/05/11 12:59:42;;;;;;;4.50;4.00;;;;;;;27.44;36.91;99788.23;130371;1267;108902;-79
2022/05/11 13:02:51;;;;;;;4.80;4.40;;;;;;;27.43;36.54;99791.07;130452;1266;108786;-81
2022/05/11 13:06:02;;;;;;;5.40;4.40;;;;;;;27.44;36.01;99785.96;130421;1267;108725;-81
2022/05/11 13:09:16;;;;;;;4.60;3.90;;;;;;;27.41;36.22;99788.92;130458;1267;108845;-81
2022/05/11 13:12:22;;;;;;;4.80;4.30;;;;;;;27.38;35.74;99784.60;130384;1267;108795;-81
2022/05/11 13:15:37;;;;;;;6.30;4.40;;;;;;;27.35;35.75;99785.43;130431;1267;108753;-81
2022/05/11 13:18:44;;;;;;;4.60;4.00;;;;;;;27.31;35.67;99775.80;130426;1266;108691;-80
2022/05/11 13:21:50;;;;;;;5.60;4.60;;;;;;;27.27;35.75;99781.99;130440;1267;108805;-80
2022/05/11 13:24:59;;;;;;;6.50;4.50;;;;;;;27.14;35.12;99784.48;130348;1267;108686;-80
2022/05/11 13:28:12;;;;;;;8.00;4.30;;;;;;;26.90;35.30;99785.03;130370;1266;108888;-80
2022/05/11 13:31:30;;;;;;;5.00;4.00;;;;;;;26.64;35.77;99785.61;130409;1267;107032;-79
2022/05/11 13:34:39;;;;;;;5.20;4.70;;;;;;;26.41;35.77;99779.84;130423;1267;108839;-81
2022/05/11 13:37:57;;;;;;;5.30;4.50;;;;;;;26.15;35.77;99778.61;130475;1267;108801;-81
2022/05/11 13:41:05;;;;;;;5.70;4.50;;;;;;;25.92;36.09;99774.13;130361;1267;108786;-78
2022/05/11 13:44:27;;;;;;;5.30;4.30;;;;;;;25.74;35.97;99772.50;130305;1267;108680;-80
2022/05/11 13:51:17;;;;;;;6.40;5.10;;;;;;;25.66;36.22;99767.93;130355;1266;108812;-80
2022/05/11 13:54:26;;;;;;;7.80;4.90;;;;;;;25.73;36.32;99759.11;130452;1266;108822;-80
2022/05/11 13:57:36;;;;;;;7.40;5.10;;;;;;;25.77;36.58;99759.23;130419;1266;108832;-80
2022/05/11 14:00:42;;;;;;;8.80;5.20;;;;;;;25.82;36.42;99750.77;130422;1267;108302;-80
2022/05/11 14:03:52;;;;;;;5.80;5.20;;;;;;;25.85;36.53;99740.90;130425;1267;108843;-80
2022/05/11 14:07:03;;;;;;;6.40;5.00;;;;;;;25.89;36.72;99738.29;130391;1267;108727;-80
2022/05/11 14:10:08;;;;;;;;;;;;;;;25.94;36.59;99735.08;130380;1267;108873;-80
2022/05/11 14:13:13;;;;;;;5.40;4.90;;;;;;;25.99;36.63;99742.23;130308;1267;107642;-80
2022/05/11 14:16:24;;;;;;;5.60;5.10;;;;;;;26.08;36.71;99735.60;130298;1267;108680;-80
2022/05/11 14:19:30;;;;;;;5.80;5.20;;;;;;;26.18;36.71;99733.34;130432;1267;108835;-80
2022/05/11 14:22:41;;;;;;;6.30;5.10;;;;;;;26.20;36.64;99721.36;130464;1267;107640;-80
2022/05/11 14:25:46;;;;;;;5.80;5.00;;;;;;;26.26;37.03;99715.14;130409;1267;108813;-80
2022/05/11 14:28:52;;;;;;;7.50;5.30;;;;;;;26.31;36.98;99709.30;130449;1267;108821;-80
2022/05/11 14:31:57;;;;;;;6.80;5.10;;;;;;;26.28;36.92;99713.35;130437;1267;108623;-79
2022/05/11 14:35:03;;;;;;;6.50;5.30;;;;;;;26.35;36.89;99707.88;130399;1267;108975;-80
2022/05/11 14:38:10;;;;;;;5.70;5.20;;;;;;;26.49;36.98;99702.81;130527;1267;108863;-81
2022/05/11 14:41:15;;;;;;;5.30;4.90;;;;;;;26.57;37.04;99697.40;130367;1266;108719;-79
2022/05/11 14:44:21;;;;;;;6.70;5.30;;;;;;;26.61;36.90;99697.66;130428;1267;108857;-80
2022/05/11 14:47:27;;;;;;;7.20;5.00;;;;;;;26.62;37.13;99697.94;130450;1267;108775;-80
2022/05/11 14:50:33;;;;;;;7.70;5.10;;;;;;;26.71;36.57;99697.06;130550;1267;109013;-79
2022/05/11 14:53:39;;;;;;;5.70;5.20;;;;;;;26.77;36.95;99695.20;130547;1267;108671;-79
2022/05/11 14:56:44;;;;;;;6.10;5.10;;;;;;;26.82;36.93;99696.34;130538;1267;108717;-79
2022/05/11 15:03:36;;;;;;;6.20;5.00;;;;;;;26.68;36.29;99688.30;130397;1268;108780;-80
2022/05/11 15:06:44;;;;;;;5.40;5.00;;;;;;;26.59;36.46;99685.20;130451;1267;108860;-79
2022/05/11 15:09:49;;;;;;;6.10;4.70;;;;;;;26.59;36.54;99685.82;130405;1266;109002;-79
2022/05/11 15:16:20;;;;;;;6.30;5.20;;;;;;;26.73;36.77;99675.20;130553;1267;108838;-79
2022/05/11 15:19:26;;;;;;;5.90;5.00;;;;;;;26.76;36.46;99667.88;130515;1266;108838;-79